Sanford, Florida
Current Conditions -  °F | °C
As of 1:53 AM on Monday 24 Nov 2014 (Local Time) from KSFB Reporting Station
Few Clouds Few Clouds  
Wind Chill: 23°   Ceiling: Unl
Heat Index: 23°   Visibility: 10mi
Dew Point: 22°   Wind: 8mph
Humidity: 91%   Direction: 200°SSW
Pressure: 29.91"   Gusts: NA
Location:  28.81°N, 81.27°W
Report Text: KSFB 240653Z AUTO 20007KT 10SM FEW028 23/22 A2991 RMK AO2 SLP128 T02330217
Loading
Personal Weather Stations






























Interactive Weather Map New forecast layout! Learn more

10-Day Weather Forecast

Advertisements
Track Severe Weather on mobile